createdAt,value
2018-09-23T00:00:24.511Z,0.00
2018-09-23T00:01:24.547Z,0.00
2018-09-23T00:02:24.578Z,0.00
2018-09-23T00:03:24.612Z,0.00
2018-09-23T00:04:24.643Z,0.00
2018-09-23T00:05:24.673Z,0.00
2018-09-23T00:06:24.709Z,0.00
2018-09-23T00:07:24.741Z,0.00
2018-09-23T00:08:24.777Z,0.00
2018-09-23T00:09:24.807Z,0.00
2018-09-23T00:10:24.840Z,0.00
2018-09-23T00:11:24.874Z,0.00
2018-09-23T00:12:24.907Z,0.00
2018-09-23T00:13:24.939Z,0.00
2018-09-23T00:14:24.972Z,0.00
2018-09-23T00:15:25.005Z,0.00
2018-09-23T00:16:25.038Z,0.00
2018-09-23T00:17:25.071Z,0.00
2018-09-23T00:18:25.104Z,0.00
2018-09-23T00:19:25.136Z,0.00
2018-09-23T00:20:25.170Z,0.00
2018-09-23T00:21:25.202Z,0.00
2018-09-23T00:22:25.235Z,0.00
2018-09-23T00:23:25.270Z,0.00
2018-09-23T00:24:25.304Z,0.00
2018-09-23T00:25:25.334Z,0.00
2018-09-23T00:26:25.369Z,0.00
2018-09-23T00:27:25.401Z,0.00
2018-09-23T00:28:25.433Z,0.00
2018-09-23T00:29:25.466Z,0.00
2018-09-23T00:30:25.500Z,0.00
2018-09-23T00:31:25.534Z,0.00
2018-09-23T00:32:25.568Z,0.00
2018-09-23T00:33:25.599Z,0.00
2018-09-23T00:34:25.632Z,0.00
2018-09-23T00:35:25.665Z,0.00
2018-09-23T00:36:25.697Z,0.00
2018-09-23T00:37:25.732Z,0.00
2018-09-23T00:38:25.765Z,0.00
2018-09-23T00:39:25.799Z,0.00
2018-09-23T00:40:25.831Z,0.00
2018-09-23T00:41:25.862Z,0.00
2018-09-23T00:42:25.898Z,0.00
2018-09-23T00:43:25.933Z,0.00
2018-09-23T00:44:25.963Z,0.00
2018-09-23T00:45:25.995Z,0.00
2018-09-23T00:46:26.029Z,0.00
2018-09-23T00:47:26.061Z,0.00
2018-09-23T00:48:26.093Z,0.00
2018-09-23T00:49:26.128Z,0.00
2018-09-23T00:50:26.163Z,0.00
2018-09-23T00:51:26.194Z,0.00
2018-09-23T00:52:26.228Z,0.00
2018-09-23T00:53:26.260Z,0.00
2018-09-23T00:54:26.297Z,0.00
2018-09-23T00:55:26.327Z,0.00
2018-09-23T00:56:26.360Z,0.00
2018-09-23T00:57:26.393Z,0.00
2018-09-23T00:58:26.428Z,0.00
2018-09-23T00:59:26.459Z,0.00
2018-09-23T01:00:26.493Z,0.00
2018-09-23T01:01:26.526Z,0.00
2018-09-23T01:02:26.560Z,0.00
2018-09-23T01:03:26.592Z,0.00
2018-09-23T01:04:26.628Z,0.00
2018-09-23T01:05:26.659Z,0.00
2018-09-23T01:06:26.692Z,0.00
2018-09-23T01:07:26.726Z,0.00
2018-09-23T01:08:26.760Z,0.00
2018-09-23T01:09:26.792Z,0.00
2018-09-23T01:10:26.826Z,0.00
2018-09-23T01:11:26.860Z,0.00
2018-09-23T01:12:26.892Z,0.00
2018-09-23T01:13:26.926Z,0.00
2018-09-23T01:14:26.960Z,0.00
2018-09-23T01:15:26.992Z,0.00
2018-09-23T01:16:27.028Z,0.00
2018-09-23T01:17:27.066Z,0.00
2018-09-23T01:18:27.092Z,0.00
2018-09-23T01:19:27.126Z,0.00
2018-09-23T01:20:27.160Z,0.00
2018-09-23T01:21:27.192Z,0.00
2018-09-23T01:22:27.230Z,0.00
2018-09-23T01:23:27.259Z,0.00
2018-09-23T01:24:27.295Z,0.00
2018-09-23T01:25:27.326Z,0.00
2018-09-23T01:26:27.359Z,0.00
2018-09-23T01:27:27.393Z,0.00
2018-09-23T01:28:27.426Z,0.00
2018-09-23T01:29:27.459Z,0.00
2018-09-23T01:30:27.494Z,0.00
2018-09-23T01:31:27.530Z,0.00
2018-09-23T01:32:27.560Z,0.00
2018-09-23T01:33:27.592Z,0.00
2018-09-23T01:34:27.626Z,0.00
2018-09-23T01:35:27.661Z,0.00
2018-09-23T01:36:27.693Z,0.00
2018-09-23T01:37:27.726Z,0.00
2018-09-23T01:38:27.760Z,0.00
2018-09-23T01:39:27.793Z,0.00
2018-09-23T01:40:27.827Z,0.00
2018-09-23T01:41:27.859Z,0.00
2018-09-23T01:42:27.893Z,0.00
2018-09-23T01:43:27.929Z,0.00
2018-09-23T01:44:27.961Z,0.00
2018-09-23T01:45:28.012Z,0.00
2018-09-23T01:46:28.029Z,0.00
2018-09-23T01:47:28.062Z,0.00
2018-09-23T01:48:28.096Z,0.00
2018-09-23T01:49:28.128Z,0.00
2018-09-23T01:50:28.162Z,0.00
2018-09-23T01:51:28.197Z,0.00
2018-09-23T01:52:28.230Z,0.00
2018-09-23T01:53:28.264Z,0.00
2018-09-23T01:54:28.297Z,0.00
2018-09-23T01:55:28.331Z,0.00
2018-09-23T01:56:28.366Z,0.00
2018-09-23T01:57:28.400Z,0.00
2018-09-23T01:58:28.449Z,0.00
2018-09-23T01:59:28.466Z,0.00
2018-09-23T02:00:28.502Z,0.00
2018-09-23T02:01:28.535Z,0.00
2018-09-23T02:02:28.568Z,0.00
2018-09-23T02:03:28.602Z,0.00
2018-09-23T02:04:28.640Z,0.00
2018-09-23T02:05:28.671Z,0.00
2018-09-23T02:06:28.705Z,0.00
2018-09-23T02:07:28.740Z,0.00
2018-09-23T02:08:28.774Z,0.00
2018-09-23T02:09:28.806Z,0.00
2018-09-23T02:10:28.841Z,0.00
2018-09-23T02:11:28.876Z,0.00
2018-09-23T02:12:28.910Z,0.00
2018-09-23T02:13:28.943Z,0.00
2018-09-23T02:14:28.988Z,0.00
2018-09-23T02:15:29.018Z,0.00
2018-09-23T02:16:29.049Z,0.00
2018-09-23T02:17:29.081Z,0.00
2018-09-23T02:18:29.116Z,0.00
2018-09-23T02:19:29.151Z,0.00
2018-09-23T02:20:29.185Z,0.00
2018-09-23T02:21:29.220Z,0.00
2018-09-23T02:22:29.254Z,0.00
2018-09-23T02:23:29.289Z,0.00
2018-09-23T02:24:29.324Z,0.00
2018-09-23T02:25:29.357Z,0.00
2018-09-23T02:26:29.393Z,0.00
2018-09-23T02:27:29.427Z,0.00
2018-09-23T02:28:29.464Z,0.00
2018-09-23T02:29:29.497Z,0.00
2018-09-23T02:30:29.532Z,0.00
2018-09-23T02:31:29.567Z,0.00
2018-09-23T02:32:29.607Z,0.00
2018-09-23T02:33:29.637Z,0.00
2018-09-23T02:34:29.670Z,0.00
2018-09-23T02:35:29.705Z,0.00
2018-09-23T02:36:29.740Z,0.00
2018-09-23T02:37:29.775Z,0.00
2018-09-23T02:38:29.810Z,0.00
2018-09-23T02:39:29.845Z,0.00
2018-09-23T02:40:29.883Z,0.00
2018-09-23T02:41:29.914Z,0.00
2018-09-23T02:42:29.951Z,0.00
2018-09-23T02:43:29.985Z,0.00
2018-09-23T02:44:30.028Z,0.00
2018-09-23T02:45:30.054Z,0.00
2018-09-23T02:46:30.090Z,0.00
2018-09-23T02:47:30.123Z,0.00
2018-09-23T02:48:30.159Z,0.00
2018-09-23T02:49:30.193Z,0.00
2018-09-23T02:50:30.229Z,0.00
2018-09-23T02:51:30.268Z,0.00
2018-09-23T02:52:30.299Z,0.00
2018-09-23T02:53:30.333Z,0.00
2018-09-23T02:54:30.369Z,0.00
2018-09-23T02:55:30.405Z,0.00
2018-09-23T02:56:30.440Z,0.00
2018-09-23T02:57:30.475Z,0.00
2018-09-23T02:58:30.509Z,0.00
2018-09-23T02:59:30.546Z,0.00
2018-09-23T03:00:30.579Z,0.00
2018-09-23T03:01:30.614Z,0.00
2018-09-23T03:02:30.655Z,0.00
2018-09-23T03:03:30.686Z,0.00
2018-09-23T03:04:30.721Z,0.00
2018-09-23T03:05:30.756Z,0.00
2018-09-23T03:06:30.790Z,0.00
2018-09-23T03:07:30.828Z,0.00
2018-09-23T03:08:30.861Z,0.00
2018-09-23T03:09:30.895Z,0.00
2018-09-23T03:10:30.931Z,0.00
2018-09-23T03:11:30.966Z,0.00
2018-09-23T03:12:31.002Z,0.00
2018-09-23T03:13:31.036Z,0.00
2018-09-23T03:14:31.073Z,0.00
2018-09-23T03:15:31.107Z,0.00
2018-09-23T03:16:31.142Z,0.00
2018-09-23T03:17:31.177Z,0.00
2018-09-23T03:18:31.213Z,0.00
2018-09-23T03:19:31.247Z,0.00
2018-09-23T03:20:31.284Z,0.00
2018-09-23T03:21:31.319Z,0.00
2018-09-23T03:22:31.353Z,0.00
2018-09-23T03:23:31.389Z,0.00
2018-09-23T03:24:31.425Z,0.00
2018-09-23T03:25:31.460Z,0.00
2018-09-23T03:26:31.496Z,0.00
2018-09-23T03:27:31.529Z,0.00
2018-09-23T03:28:31.569Z,0.00
2018-09-23T03:29:31.600Z,0.00
2018-09-23T03:30:31.636Z,0.00
2018-09-23T03:31:31.671Z,0.00
2018-09-23T03:32:31.708Z,0.00
2018-09-23T03:33:31.741Z,0.00
2018-09-23T03:34:31.777Z,0.00
2018-09-23T03:35:31.811Z,0.00
2018-09-23T03:36:31.848Z,0.00
2018-09-23T03:37:31.882Z,0.00
2018-09-23T03:38:31.917Z,0.00
2018-09-23T03:39:31.952Z,0.00
2018-09-23T03:40:31.988Z,0.00
2018-09-23T03:41:32.023Z,0.00
2018-09-23T03:42:32.058Z,0.00
2018-09-23T03:43:32.094Z,0.00
2018-09-23T03:44:32.130Z,0.00
2018-09-23T03:45:32.164Z,0.00
2018-09-23T03:46:32.203Z,0.00
2018-09-23T03:47:32.236Z,0.00
2018-09-23T03:48:32.271Z,0.00
2018-09-23T03:49:32.307Z,0.00
2018-09-23T03:50:32.344Z,0.00
2018-09-23T03:51:32.377Z,0.00
2018-09-23T03:52:32.412Z,0.00
2018-09-23T03:53:32.447Z,0.00
2018-09-23T03:54:32.484Z,0.00
2018-09-23T03:55:32.520Z,0.00
2018-09-23T03:56:32.557Z,0.00
2018-09-23T03:57:32.591Z,0.00
2018-09-23T03:58:32.628Z,0.00
2018-09-23T03:59:32.660Z,0.00
2018-09-23T04:00:32.695Z,0.00
2018-09-23T04:01:32.733Z,0.00
2018-09-23T04:02:32.766Z,0.00
2018-09-23T04:03:32.801Z,0.00
2018-09-23T04:04:32.836Z,0.00
2018-09-23T04:05:32.870Z,0.00
2018-09-23T04:06:32.908Z,0.00
2018-09-23T04:07:32.944Z,0.00
2018-09-23T04:08:32.977Z,0.00
2018-09-23T04:09:33.016Z,0.00
2018-09-23T04:10:33.047Z,0.00
2018-09-23T04:11:33.083Z,0.00
2018-09-23T04:12:33.123Z,0.00
2018-09-23T04:13:33.153Z,0.00
2018-09-23T04:14:33.192Z,0.00
2018-09-23T04:15:33.224Z,0.00
2018-09-23T04:16:33.259Z,0.00
2018-09-23T04:17:33.295Z,0.00
2018-09-23T04:18:33.360Z,0.00
2018-09-23T04:19:33.365Z,0.00
2018-09-23T04:20:33.401Z,0.00
2018-09-23T04:21:33.435Z,0.00
2018-09-23T04:22:33.471Z,0.00
2018-09-23T04:23:33.506Z,0.00
2018-09-23T04:24:33.543Z,0.00
2018-09-23T04:25:33.577Z,0.00
2018-09-23T04:26:33.612Z,0.00
2018-09-23T04:27:33.853Z,0.00
2018-09-23T04:28:33.683Z,0.00
2018-09-23T04:29:33.719Z,0.00
2018-09-23T04:30:33.753Z,0.00
2018-09-23T04:31:33.788Z,0.00
2018-09-23T04:32:33.824Z,0.00
2018-09-23T04:33:33.859Z,0.00
2018-09-23T04:34:33.894Z,0.00
2018-09-23T04:35:33.929Z,0.00
2018-09-23T04:36:33.965Z,0.00
2018-09-23T04:37:34.000Z,0.00
2018-09-23T04:38:34.035Z,0.00
2018-09-23T04:39:34.070Z,0.00
2018-09-23T04:40:34.132Z,0.00
2018-09-23T04:41:34.142Z,0.00
2018-09-23T04:42:34.175Z,0.00
2018-09-23T04:43:34.212Z,0.00
2018-09-23T04:44:34.247Z,0.00
2018-09-23T04:45:34.283Z,0.00
2018-09-23T04:46:34.318Z,0.00
2018-09-23T04:47:34.354Z,0.00
2018-09-23T04:48:34.388Z,0.00
2018-09-23T04:49:34.423Z,4.00
2018-09-23T04:50:34.458Z,4.00
2018-09-23T04:51:34.495Z,0.00
2018-09-23T04:52:34.528Z,0.00
2018-09-23T04:53:34.564Z,4.00
2018-09-23T04:54:34.599Z,4.00
2018-09-23T04:55:34.636Z,4.00
2018-09-23T04:56:34.670Z,8.00
2018-09-23T04:57:34.705Z,8.00
2018-09-23T04:58:34.740Z,8.00
2018-09-23T04:59:34.776Z,12.00
2018-09-23T05:00:34.811Z,16.00
2018-09-23T05:01:34.846Z,20.00
2018-09-23T05:02:34.896Z,28.00
2018-09-23T05:03:34.918Z,32.00
2018-09-23T05:04:34.956Z,40.00
2018-09-23T05:05:34.988Z,48.00
2018-09-23T05:06:35.023Z,56.00
2018-09-23T05:07:35.059Z,72.00
2018-09-23T05:08:35.094Z,92.00
2018-09-23T05:09:35.128Z,108.00
2018-09-23T05:10:35.165Z,120.00
2018-09-23T05:11:35.199Z,132.00
2018-09-23T05:12:35.235Z,140.00
2018-09-23T05:13:35.269Z,152.00
2018-09-23T05:14:35.305Z,152.00
2018-09-23T05:15:35.341Z,156.00
2018-09-23T05:16:35.378Z,160.00
2018-09-23T05:17:35.411Z,156.00
2018-09-23T05:18:35.448Z,168.00
2018-09-23T05:19:35.482Z,208.00
2018-09-23T05:20:35.521Z,236.00
2018-09-23T05:21:35.553Z,252.00
2018-09-23T05:22:35.591Z,272.00
2018-09-23T05:23:35.623Z,304.00
2018-09-23T05:24:35.681Z,300.00
2018-09-23T05:25:35.694Z,304.00
2018-09-23T05:26:35.753Z,372.00
2018-09-23T05:27:35.767Z,400.00
2018-09-23T05:28:35.801Z,400.00
2018-09-23T05:29:35.836Z,416.00
2018-09-23T05:30:35.871Z,464.00
2018-09-23T05:31:35.907Z,480.00
2018-09-23T05:32:35.943Z,484.00
2018-09-23T05:33:35.981Z,496.00
2018-09-23T05:34:36.015Z,504.00
2018-09-23T05:35:36.049Z,580.00
2018-09-23T05:36:36.084Z,636.00
2018-09-23T05:37:36.119Z,668.00
2018-09-23T05:38:36.161Z,708.00
2018-09-23T05:39:36.190Z,696.00
2018-09-23T05:40:36.227Z,672.00
2018-09-23T05:41:36.261Z,660.00
2018-09-23T05:42:36.297Z,676.00
2018-09-23T05:43:36.335Z,712.00
2018-09-23T05:44:36.369Z,704.00
2018-09-23T05:45:36.403Z,632.00
2018-09-23T05:46:36.439Z,600.00
2018-09-23T05:47:36.475Z,576.00
2018-09-23T05:48:36.512Z,628.00
2018-09-23T05:49:36.590Z,760.00
2018-09-23T05:50:36.581Z,820.00
2018-09-23T05:51:36.617Z,824.00
2018-09-23T05:52:36.652Z,788.00
2018-09-23T05:53:36.687Z,840.00
2018-09-23T05:54:36.723Z,996.00
2018-09-23T05:55:36.761Z,1128.00
2018-09-23T05:56:36.796Z,1300.00
2018-09-23T05:57:36.831Z,1508.00
2018-09-23T05:58:36.867Z,1564.00
2018-09-23T05:59:36.903Z,1616.00
2018-09-23T06:00:36.938Z,1608.00
2018-09-23T06:01:36.973Z,1460.00
2018-09-23T06:02:37.010Z,1520.00
2018-09-23T06:03:37.046Z,1576.00
2018-09-23T06:04:37.081Z,1368.00
2018-09-23T06:05:37.119Z,1276.00
2018-09-23T06:06:37.156Z,1300.00
2018-09-23T06:07:37.190Z,1428.00
2018-09-23T06:08:37.230Z,1516.00
2018-09-23T06:09:37.260Z,1576.00
2018-09-23T06:10:37.296Z,1660.00
2018-09-23T06:11:37.332Z,1760.00
2018-09-23T06:12:37.370Z,1952.00
2018-09-23T06:13:37.403Z,2156.00
2018-09-23T06:14:37.441Z,2352.00
2018-09-23T06:15:37.476Z,2548.00
2018-09-23T06:16:37.512Z,2748.00
2018-09-23T06:17:37.550Z,2980.00
2018-09-23T06:18:37.583Z,3352.00
2018-09-23T06:19:37.621Z,3400.00
2018-09-23T06:20:37.657Z,3092.00
2018-09-23T06:21:37.693Z,2988.00
2018-09-23T06:22:37.729Z,2836.00
2018-09-23T06:23:37.764Z,2836.00
2018-09-23T06:24:37.800Z,2844.00
2018-09-23T06:25:37.835Z,2884.00
2018-09-23T06:26:37.871Z,2788.00
2018-09-23T06:27:37.915Z,2852.00
2018-09-23T06:28:37.944Z,3076.00
2018-09-23T06:29:37.980Z,3360.00
2018-09-23T06:30:38.018Z,3696.00
2018-09-23T06:31:38.052Z,3876.00
2018-09-23T06:32:38.089Z,4160.00
2018-09-23T06:33:38.124Z,4588.00
2018-09-23T06:34:38.162Z,4552.00
2018-09-23T06:35:38.197Z,4368.00
2018-09-23T06:36:38.238Z,4120.00
2018-09-23T06:37:38.269Z,3544.00
2018-09-23T06:38:38.306Z,3744.00
2018-09-23T06:39:38.342Z,3844.00
2018-09-23T06:40:38.379Z,3352.00
2018-09-23T06:41:38.416Z,2888.00
2018-09-23T06:42:38.452Z,2696.00
2018-09-23T06:43:38.487Z,2460.00
2018-09-23T06:44:38.523Z,2340.00
2018-09-23T06:45:38.604Z,2156.00
2018-09-23T06:46:38.595Z,2132.00
2018-09-23T06:47:38.631Z,2300.00
2018-09-23T06:48:38.668Z,2292.00
2018-09-23T06:49:38.704Z,2240.00
2018-09-23T06:50:38.742Z,2512.00
2018-09-23T06:51:38.778Z,2484.00
2018-09-23T06:52:38.813Z,2160.00
2018-09-23T06:53:38.850Z,2056.00
2018-09-23T06:54:38.890Z,2364.00
2018-09-23T06:55:38.925Z,2632.00
2018-09-23T06:56:38.960Z,2796.00
2018-09-23T06:57:38.995Z,2784.00
2018-09-23T06:58:39.032Z,3096.00
2018-09-23T06:59:39.069Z,3152.00
2018-09-23T07:00:39.106Z,3116.00
2018-09-23T07:01:39.141Z,3008.00
2018-09-23T07:02:39.179Z,2996.00
2018-09-23T07:03:39.215Z,3628.00
2018-09-23T07:04:39.333Z,4288.00
2018-09-23T07:05:39.287Z,4884.00
2018-09-23T07:06:39.325Z,5236.00
2018-09-23T07:07:39.359Z,6260.00
2018-09-23T07:08:39.396Z,6592.00
2018-09-23T07:09:39.432Z,6500.00
2018-09-23T07:10:39.470Z,6620.00
2018-09-23T07:11:39.507Z,6916.00
2018-09-23T07:12:39.543Z,7084.00
2018-09-23T07:13:39.578Z,7300.00
2018-09-23T07:14:39.618Z,7660.00
2018-09-23T07:15:39.653Z,7608.00
2018-09-23T07:16:39.688Z,7584.00
2018-09-23T07:17:39.725Z,7788.00
2018-09-23T07:18:39.761Z,8100.00
2018-09-23T07:19:39.798Z,8692.00
2018-09-23T07:20:39.840Z,9228.00
2018-09-23T07:21:39.871Z,8368.00
2018-09-23T07:22:39.908Z,8056.00
2018-09-23T07:23:40.016Z,7736.00
2018-09-23T07:24:39.983Z,7852.00
2018-09-23T07:25:40.019Z,8300.00
2018-09-23T07:26:40.056Z,8824.00
2018-09-23T07:27:40.094Z,8512.00
2018-09-23T07:28:40.133Z,7700.00
2018-09-23T07:29:40.169Z,7500.00
2018-09-23T07:30:40.204Z,8104.00
2018-09-23T07:31:40.241Z,8844.00
2018-09-23T07:32:40.286Z,8936.00
2018-09-23T07:33:40.314Z,9964.00
2018-09-23T07:34:40.352Z,10352.00
2018-09-23T07:35:40.389Z,10236.00
2018-09-23T07:36:40.481Z,10344.00
2018-09-23T07:37:40.465Z,10988.00
2018-09-23T07:38:40.501Z,10464.00
2018-09-23T07:39:40.627Z,10888.00
2018-09-23T07:40:40.576Z,10024.00
2018-09-23T07:41:40.613Z,9848.00
2018-09-23T07:42:40.651Z,11052.00
2018-09-23T07:43:40.694Z,9224.00
2018-09-23T07:44:40.731Z,8972.00
2018-09-23T07:45:40.762Z,9784.00
2018-09-23T07:46:40.801Z,11016.00
2018-09-23T07:47:40.840Z,11624.00
2018-09-23T07:48:40.877Z,11940.00
2018-09-23T07:49:40.914Z,11260.00
2018-09-23T07:50:40.952Z,9024.00
2018-09-23T07:51:40.989Z,9348.00
2018-09-23T07:52:41.028Z,10612.00
2018-09-23T07:53:41.067Z,9724.00
2018-09-23T07:54:41.103Z,8564.00
2018-09-23T07:55:41.141Z,9528.00
2018-09-23T07:56:41.179Z,9928.00
2018-09-23T07:57:41.216Z,11128.00
2018-09-23T07:58:41.255Z,12072.00
2018-09-23T07:59:41.293Z,11644.00
2018-09-23T08:00:41.332Z,10628.00
2018-09-23T08:01:41.369Z,9676.00
2018-09-23T08:02:41.406Z,8544.00
2018-09-23T08:03:41.446Z,6796.00
2018-09-23T08:04:41.483Z,5444.00
2018-09-23T08:05:41.523Z,5612.00
2018-09-23T08:06:41.558Z,6460.00
2018-09-23T08:07:41.597Z,6028.00
2018-09-23T08:08:41.635Z,5644.00
2018-09-23T08:09:41.672Z,5220.00
2018-09-23T08:10:41.711Z,5172.00
2018-09-23T08:11:41.749Z,5188.00
2018-09-23T08:12:41.848Z,5376.00
2018-09-23T08:13:41.988Z,5360.00
2018-09-23T08:14:42.326Z,5452.00
2018-09-23T08:15:41.902Z,4720.00
2018-09-23T08:16:41.937Z,4272.00
2018-09-23T08:17:41.975Z,4320.00
2018-09-23T08:18:42.014Z,4704.00
2018-09-23T08:19:42.141Z,4872.00
2018-09-23T08:20:42.222Z,5252.00
2018-09-23T08:21:42.127Z,5724.00
2018-09-23T08:22:42.165Z,5552.00
2018-09-23T08:23:42.202Z,5316.00
2018-09-23T08:24:42.240Z,5728.00
2018-09-23T08:25:42.349Z,5820.00
2018-09-23T08:26:42.315Z,4836.00
2018-09-23T08:27:42.353Z,4552.00
2018-09-23T08:28:42.391Z,4740.00
2018-09-23T08:29:42.430Z,5140.00
2018-09-23T08:30:42.464Z,5412.00
2018-09-23T08:31:42.504Z,5464.00
2018-09-23T08:32:42.547Z,5480.00
2018-09-23T08:33:42.577Z,5864.00
2018-09-23T08:34:42.616Z,6584.00
2018-09-23T08:35:42.656Z,7128.00
2018-09-23T08:36:42.692Z,7336.00
2018-09-23T08:37:42.728Z,8328.00
2018-09-23T08:38:42.765Z,9444.00
2018-09-23T08:39:42.820Z,9736.00
2018-09-23T08:40:42.842Z,9856.00
2018-09-23T08:41:42.877Z,9420.00
2018-09-23T08:42:42.938Z,9244.00
2018-09-23T08:43:42.953Z,9364.00
2018-09-23T08:44:43.191Z,8776.00
2018-09-23T08:45:43.027Z,8216.00
2018-09-23T08:46:43.067Z,8764.00
2018-09-23T08:47:43.104Z,9992.00
2018-09-23T08:48:43.142Z,9844.00
2018-09-23T08:49:43.178Z,9696.00
2018-09-23T08:50:43.216Z,10464.00
2018-09-23T08:51:43.302Z,11216.00
2018-09-23T08:52:43.292Z,11124.00
2018-09-23T08:53:43.329Z,10604.00
2018-09-23T08:54:43.367Z,10900.00
2018-09-23T08:55:43.405Z,10924.00
2018-09-23T08:56:43.443Z,10516.00
2018-09-23T08:57:43.512Z,11084.00
2018-09-23T08:58:43.518Z,12948.00
2018-09-23T08:59:43.557Z,16016.00
2018-09-23T09:00:43.596Z,39040.00
2018-09-23T09:01:43.632Z,19552.00
2018-09-23T09:02:43.671Z,18496.00
2018-09-23T09:03:43.775Z,38624.00
2018-09-23T09:04:43.750Z,63680.00
2018-09-23T09:05:43.786Z,19712.00
2018-09-23T09:07:26.378Z,20480.00
2018-09-23T09:08:26.421Z,15780.00
2018-09-23T09:09:26.458Z,27584.00
2018-09-23T09:10:26.496Z,22208.00
2018-09-23T09:11:26.569Z,75104.00
2018-09-23T09:12:26.576Z,21664.00
2018-09-23T09:13:26.617Z,25056.00
2018-09-23T09:14:26.656Z,75584.00
2018-09-23T09:15:26.695Z,83392.00
2018-09-23T09:16:26.735Z,42048.00
2018-09-23T09:17:26.774Z,86720.00
2018-09-23T09:18:26.969Z,57056.00
2018-09-23T09:19:26.857Z,84448.00
2018-09-23T09:20:26.898Z,84128.00
2018-09-23T09:21:26.942Z,57440.00
2018-09-23T09:22:26.981Z,88288.00
2018-09-23T09:23:27.058Z,80320.00
2018-09-23T09:24:27.067Z,77888.00
2018-09-23T09:25:27.115Z,78304.00
2018-09-23T09:26:27.171Z,81472.00
2018-09-23T09:27:27.198Z,85024.00
2018-09-23T09:28:27.290Z,85216.00
2018-09-23T09:29:27.285Z,80736.00
2018-09-23T09:30:27.330Z,77024.00
2018-09-23T09:31:28.590Z,81376.00
2018-09-23T09:33:09.985Z,83584.00
2018-09-23T09:34:10.046Z,84352.00
2018-09-23T09:35:10.071Z,87328.00
2018-09-23T09:36:10.114Z,88992.00
2018-09-23T09:37:10.162Z,92608.00
2018-09-23T09:38:10.209Z,96416.00
2018-09-23T09:39:10.256Z,100224.00
2018-09-23T09:40:10.302Z,103168.00
2018-09-23T09:41:10.350Z,97472.00
2018-09-23T09:42:10.397Z,97760.00
2018-09-23T09:43:10.445Z,100224.00
2018-09-23T09:44:10.596Z,101184.00
2018-09-23T09:45:10.543Z,102784.00
2018-09-23T09:46:10.594Z,110848.00
2018-09-23T09:47:10.639Z,48320.00
2018-09-23T09:48:10.687Z,40512.00
2018-09-23T09:49:10.736Z,49984.00
2018-09-23T09:50:10.786Z,51680.00
2018-09-23T09:51:10.837Z,23424.00
2018-09-23T09:52:10.885Z,19360.00
2018-09-23T09:53:10.931Z,20512.00
2018-09-23T09:54:10.979Z,23296.00
2018-09-23T09:55:11.053Z,23520.00
2018-09-23T09:56:11.075Z,35008.00
2018-09-23T09:57:11.124Z,112128.00
2018-09-23T09:58:11.171Z,102016.00
2018-09-23T09:59:11.218Z,73472.00
2018-09-23T10:00:11.264Z,103872.00
2018-09-23T10:01:11.367Z,58464.00
2018-09-23T10:02:11.361Z,112192.00
2018-09-23T10:03:11.409Z,55200.00
2018-09-23T10:04:11.529Z,65536.00
2018-09-23T10:05:11.504Z,105312.00
2018-09-23T10:06:11.553Z,52192.00
2018-09-23T10:07:11.601Z,51456.00
2018-09-23T10:08:11.648Z,39584.00
2018-09-23T10:09:11.696Z,33792.00
2018-09-23T10:10:11.744Z,41792.00
2018-09-23T10:11:11.795Z,42560.00
2018-09-23T10:12:11.839Z,54784.00
2018-09-23T10:13:11.887Z,31168.00
2018-09-23T10:14:11.935Z,35648.00
2018-09-23T10:15:11.985Z,25280.00
2018-09-23T10:16:12.030Z,22976.00
2018-09-23T10:17:12.077Z,18080.00
2018-09-23T10:18:12.124Z,17920.00
2018-09-23T10:19:12.169Z,23232.00
2018-09-23T10:20:12.217Z,32544.00
2018-09-23T10:21:12.265Z,22112.00
2018-09-23T10:22:12.310Z,21824.00
2018-09-23T10:23:12.459Z,26144.00
2018-09-23T10:24:12.402Z,23488.00
2018-09-23T10:25:12.447Z,36608.00
2018-09-23T10:26:12.494Z,30496.00
2018-09-23T10:27:12.538Z,25760.00
2018-09-23T10:28:12.582Z,48640.00
2018-09-23T10:29:12.628Z,95904.00
2018-09-23T10:30:12.673Z,71072.00
2018-09-23T10:31:12.853Z,31744.00
2018-09-23T10:32:12.762Z,43200.00
2018-09-23T10:33:12.807Z,57376.00
2018-09-23T10:34:12.852Z,51296.00
2018-09-23T10:35:12.898Z,35104.00
2018-09-23T10:36:12.980Z,38400.00
2018-09-23T10:37:12.986Z,32320.00
2018-09-23T10:38:13.030Z,27136.00
2018-09-23T10:39:13.077Z,28608.00
2018-09-23T10:40:13.119Z,29280.00
2018-09-23T10:41:13.171Z,30688.00
2018-09-23T10:42:13.208Z,36064.00
2018-09-23T10:43:13.254Z,34624.00
2018-09-23T10:44:13.297Z,47008.00
2018-09-23T10:45:13.342Z,126816.00
2018-09-23T10:46:13.385Z,50368.00
2018-09-23T10:47:13.431Z,55136.00
2018-09-23T10:48:13.483Z,110272.00
2018-09-23T10:49:13.520Z,35328.00
2018-09-23T10:50:13.565Z,24224.00
2018-09-23T10:51:13.611Z,22112.00
2018-09-23T10:52:13.656Z,19424.00
2018-09-23T10:53:13.701Z,22912.00
2018-09-23T10:54:13.746Z,27904.00
2018-09-23T10:55:13.791Z,30080.00
2018-09-23T10:56:13.835Z,31360.00
2018-09-23T10:57:13.881Z,42976.00
2018-09-23T10:58:13.926Z,62976.00
2018-09-23T10:59:13.972Z,107584.00
2018-09-23T11:00:14.015Z,116960.00
2018-09-23T11:01:14.061Z,128096.00
2018-09-23T11:02:14.108Z,129536.00
2018-09-23T11:03:14.151Z,29632.00
2018-09-23T11:04:14.283Z,74784.00
2018-09-23T11:05:14.242Z,76800.00
2018-09-23T11:06:14.288Z,27488.00
2018-09-23T11:07:14.386Z,26464.00
2018-09-23T11:08:14.384Z,27168.00
2018-09-23T11:09:14.451Z,24608.00
2018-09-23T11:10:14.498Z,24768.00
2018-09-23T11:11:14.522Z,23808.00
2018-09-23T11:12:14.565Z,22976.00
2018-09-23T11:13:14.621Z,22784.00
2018-09-23T11:14:14.657Z,22336.00
2018-09-23T11:15:14.708Z,22592.00
2018-09-23T11:16:14.748Z,22624.00
2018-09-23T11:17:14.843Z,24096.00
2018-09-23T11:18:14.838Z,23840.00
2018-09-23T11:19:14.884Z,22304.00
2018-09-23T11:20:14.925Z,21696.00
2018-09-23T11:21:14.970Z,20544.00
2018-09-23T11:22:15.015Z,19936.00
2018-09-23T11:23:15.091Z,20704.00
2018-09-23T11:24:15.101Z,20640.00
2018-09-23T11:25:15.173Z,21312.00
2018-09-23T11:26:15.189Z,22304.00
2018-09-23T11:27:15.232Z,23616.00
2018-09-23T11:28:15.275Z,26080.00
2018-09-23T11:29:15.318Z,25248.00
2018-09-23T11:30:15.361Z,23360.00
2018-09-23T11:31:15.405Z,21216.00
2018-09-23T11:32:15.470Z,20160.00
2018-09-23T11:33:15.489Z,19360.00
2018-09-23T11:34:15.532Z,19744.00
2018-09-23T11:35:15.574Z,19520.00
2018-09-23T11:36:15.617Z,18944.00
2018-09-23T11:37:15.658Z,19040.00
2018-09-23T11:38:15.701Z,15148.00
2018-09-23T11:39:15.743Z,14368.00
2018-09-23T11:40:15.785Z,14940.00
2018-09-23T11:41:15.828Z,11296.00
2018-09-23T11:42:15.870Z,11920.00
2018-09-23T11:43:15.912Z,11036.00
2018-09-23T11:44:15.958Z,9224.00
2018-09-23T11:45:15.992Z,7876.00
2018-09-23T11:46:16.036Z,11788.00
2018-09-23T11:47:16.077Z,12268.00
2018-09-23T11:48:16.117Z,13716.00
2018-09-23T11:49:16.159Z,11624.00
2018-09-23T11:50:16.200Z,8712.00
2018-09-23T11:51:16.241Z,5820.00
2018-09-23T11:52:16.282Z,5116.00
2018-09-23T11:53:16.324Z,7992.00
2018-09-23T11:54:16.412Z,12820.00
2018-09-23T11:55:16.405Z,12152.00
2018-09-23T11:56:16.444Z,8080.00
2018-09-23T11:57:16.486Z,7796.00
2018-09-23T11:58:16.527Z,10252.00
2018-09-23T11:59:16.568Z,11432.00
2018-09-23T12:00:16.608Z,13932.00
2018-09-23T12:01:16.650Z,15312.00
2018-09-23T12:02:16.709Z,14692.00
2018-09-23T12:03:16.730Z,22624.00
2018-09-23T12:04:16.828Z,17600.00
2018-09-23T12:05:16.811Z,13948.00
2018-09-23T12:06:16.851Z,18432.00
2018-09-23T12:07:16.893Z,20160.00
2018-09-23T12:08:16.932Z,30112.00
2018-09-23T12:09:16.974Z,24704.00
2018-09-23T12:10:17.067Z,43424.00
2018-09-23T12:11:17.054Z,23296.00
2018-09-23T12:12:17.094Z,19296.00
2018-09-23T12:13:17.139Z,17088.00
2018-09-23T12:14:17.177Z,16208.00
2018-09-23T12:15:17.217Z,17568.00
2018-09-23T12:16:17.259Z,16024.00
2018-09-23T12:17:17.301Z,14520.00
2018-09-23T12:18:17.341Z,15148.00
2018-09-23T12:19:17.381Z,20704.00
2018-09-23T12:20:17.422Z,18496.00
2018-09-23T12:21:17.463Z,19360.00
2018-09-23T12:22:17.505Z,20736.00
2018-09-23T12:23:17.549Z,28576.00
2018-09-23T12:24:17.585Z,33440.00
2018-09-23T12:25:17.668Z,25856.00
2018-09-23T12:26:17.666Z,21728.00
2018-09-23T12:27:17.710Z,20640.00
2018-09-23T12:28:17.752Z,23328.00
2018-09-23T12:29:17.790Z,26784.00